createdAt,value
2023-03-06T00:00:48.903Z,71.30
2023-03-06T00:03:22.878Z,73.20
2023-03-06T00:05:53.630Z,70.80
2023-03-06T00:08:24.887Z,76.00
2023-03-06T00:13:25.919Z,67.90
2023-03-06T00:16:00.055Z,66.20
2023-03-06T00:18:31.228Z,71.10
2023-03-06T00:21:02.610Z,66.20
2023-03-06T00:23:33.270Z,71.60
2023-03-06T00:26:06.488Z,66.40
2023-03-06T00:28:37.677Z,73.30
2023-03-06T00:31:08.571Z,69.00
2023-03-06T00:33:39.365Z,61.00
2023-03-06T00:36:10.778Z,65.00
2023-03-06T00:38:41.558Z,69.30
2023-03-06T00:41:13.224Z,66.80
2023-03-06T00:43:43.848Z,70.60
2023-03-06T00:46:14.619Z,59.20
2023-03-06T00:48:45.356Z,60.30
2023-03-06T00:51:16.009Z,65.40
2023-03-06T00:53:46.741Z,65.50
2023-03-06T00:56:19.840Z,62.30
2023-03-06T00:58:50.620Z,60.70
2023-03-06T01:01:21.402Z,70.20
2023-03-06T01:03:52.049Z,62.00
2023-03-06T01:06:22.857Z,58.20
2023-03-06T01:08:53.474Z,64.20
2023-03-06T01:11:24.376Z,54.20
2023-03-06T01:13:55.102Z,59.20
2023-03-06T01:16:25.808Z,59.00
2023-03-06T01:18:56.472Z,58.00
2023-03-06T01:21:28.064Z,59.30
2023-03-06T01:23:58.772Z,49.40
2023-03-06T01:26:29.478Z,47.50
2023-03-06T01:29:00.161Z,51.20
2023-03-06T01:31:30.898Z,47.20
2023-03-06T01:34:01.902Z,44.30
2023-03-06T01:36:32.594Z,42.30
2023-03-06T01:39:03.762Z,40.60
2023-03-06T01:44:04.646Z,38.20
2023-03-06T01:46:37.706Z,37.20
2023-03-06T01:49:15.139Z,38.00
2023-03-06T01:51:52.083Z,39.80
2023-03-06T01:54:26.898Z,41.10
2023-03-06T01:57:03.641Z,38.10
2023-03-06T01:59:36.800Z,38.30
2023-03-06T02:02:09.473Z,35.60
2023-03-06T02:04:41.643Z,39.30
2023-03-06T02:07:14.264Z,38.30
2023-03-06T02:09:45.031Z,39.00
2023-03-06T02:12:18.833Z,33.10
2023-03-06T02:14:50.312Z,38.50
2023-03-06T02:17:22.412Z,30.10
2023-03-06T02:20:00.556Z,29.90
2023-03-06T02:22:37.542Z,28.10
2023-03-06T02:25:15.235Z,27.30
2023-03-06T02:27:46.000Z,29.50
2023-03-06T02:30:19.077Z,26.90
2023-03-06T02:32:56.861Z,27.30
2023-03-06T02:35:29.001Z,33.70
2023-03-06T02:38:04.499Z,32.60
2023-03-06T02:40:35.382Z,37.40
2023-03-06T02:43:06.148Z,28.50
2023-03-06T02:45:39.548Z,28.50
2023-03-06T02:48:10.254Z,26.20
2023-03-06T02:50:41.398Z,23.20
2023-03-06T02:55:41.938Z,20.90
2023-03-06T02:58:12.691Z,20.20
2023-03-06T03:00:43.349Z,28.30
2023-03-06T03:03:14.229Z,19.90
2023-03-06T03:05:44.871Z,22.20
2023-03-06T03:08:15.600Z,18.70
2023-03-06T03:10:46.253Z,19.50
2023-03-06T03:13:16.992Z,21.10
2023-03-06T03:15:57.073Z,18.30
2023-03-06T03:18:28.177Z,20.00
2023-03-06T03:23:28.281Z,19.10
2023-03-06T03:26:08.096Z,18.10
2023-03-06T03:28:39.161Z,19.40
2023-03-06T03:31:11.123Z,22.20
2023-03-06T03:33:42.408Z,15.50
2023-03-06T03:38:42.280Z,12.80
2023-03-06T03:41:13.051Z,14.10
2023-03-06T03:43:43.908Z,12.30
2023-03-06T03:46:14.617Z,14.60
2023-03-06T03:48:45.323Z,10.80
2023-03-06T03:51:16.022Z,10.00
2023-03-06T03:53:46.774Z,13.10
2023-03-06T03:56:17.518Z,13.30
2023-03-06T03:58:48.221Z,10.00
2023-03-06T04:01:18.920Z,13.70
2023-03-06T04:03:49.636Z,17.40
2023-03-06T04:06:20.607Z,9.30
2023-03-06T04:08:51.333Z,11.50
2023-03-06T04:11:22.011Z,9.40
2023-03-06T04:13:52.695Z,9.90
2023-03-06T04:16:23.730Z,11.80
2023-03-06T04:18:54.451Z,7.80
2023-03-06T04:21:25.206Z,9.30
2023-03-06T04:23:56.076Z,10.80
2023-03-06T04:26:26.968Z,9.00
2023-03-06T04:28:57.634Z,11.60
2023-03-06T04:31:28.284Z,8.70
2023-03-06T04:33:58.977Z,9.70
2023-03-06T04:36:33.690Z,6.90
2023-03-06T04:39:05.512Z,10.00
2023-03-06T04:41:36.163Z,6.40
2023-03-06T04:44:07.704Z,14.00
2023-03-06T04:46:38.545Z,15.50
2023-03-06T04:49:09.253Z,14.60
2023-03-06T04:51:39.892Z,14.30
2023-03-06T04:54:10.587Z,9.70
2023-03-06T04:56:41.549Z,9.80
2023-03-06T04:59:12.230Z,7.50
2023-03-06T05:01:42.951Z,9.00
2023-03-06T05:04:13.569Z,9.10
2023-03-06T05:06:44.320Z,13.40
2023-03-06T05:09:15.043Z,9.20
2023-03-06T05:11:45.686Z,7.40
2023-03-06T05:14:16.419Z,9.90
2023-03-06T05:16:47.171Z,8.20
2023-03-06T05:19:17.882Z,9.60
2023-03-06T05:21:48.514Z,13.60
2023-03-06T05:24:19.574Z,17.10
2023-03-06T05:29:19.471Z,18.00
2023-03-06T05:31:50.193Z,24.90
2023-03-06T05:34:20.884Z,15.40
2023-03-06T05:36:51.557Z,17.60
2023-03-06T05:39:22.261Z,15.80
2023-03-06T05:41:52.867Z,14.60
2023-03-06T05:44:23.510Z,16.30
2023-03-06T05:46:54.105Z,16.20
2023-03-06T05:49:24.794Z,16.10
2023-03-06T05:51:55.451Z,22.30
2023-03-06T05:54:26.132Z,17.00
2023-03-06T05:56:56.929Z,17.20
2023-03-06T05:59:28.163Z,14.10
2023-03-06T06:01:59.900Z,19.20
2023-03-06T06:04:30.687Z,16.20
2023-03-06T06:07:01.937Z,17.10
2023-03-06T06:09:32.613Z,17.70
2023-03-06T06:12:04.634Z,13.50
2023-03-06T06:14:36.409Z,15.10
2023-03-06T06:17:07.219Z,14.30
2023-03-06T06:19:38.540Z,20.80
2023-03-06T06:22:09.742Z,21.70
2023-03-06T06:27:10.090Z,30.70
2023-03-06T06:32:09.919Z,22.60
2023-03-06T06:34:40.557Z,24.00
2023-03-06T06:37:13.125Z,26.30
2023-03-06T06:39:43.930Z,28.80
2023-03-06T06:42:30.997Z,33.50
2023-03-06T06:45:04.454Z,29.80
2023-03-06T06:47:35.169Z,25.30
2023-03-06T06:50:15.678Z,22.10
2023-03-06T06:52:46.400Z,20.70
2023-03-06T06:55:17.658Z,23.90
2023-03-06T06:57:48.366Z,25.20
2023-03-06T07:00:20.781Z,20.30
2023-03-06T07:02:51.478Z,18.50
2023-03-06T07:05:22.272Z,12.70
2023-03-06T07:07:53.053Z,14.50
2023-03-06T07:10:24.592Z,11.70
2023-03-06T07:12:55.247Z,13.70
2023-03-06T07:15:26.050Z,11.80
2023-03-06T07:17:56.782Z,12.90
2023-03-06T07:20:28.366Z,17.00
2023-03-06T07:22:59.067Z,17.70
2023-03-06T07:25:29.894Z,17.60
2023-03-06T07:28:00.704Z,23.80
2023-03-06T07:30:32.693Z,24.40
2023-03-06T07:33:03.416Z,31.90
2023-03-06T07:35:34.431Z,32.10
2023-03-06T07:38:05.396Z,29.00
2023-03-06T07:40:36.080Z,45.60
2023-03-06T07:43:18.617Z,36.10
2023-03-06T07:45:57.596Z,51.30
2023-03-06T07:48:28.735Z,66.20
2023-03-06T07:51:01.726Z,76.40
2023-03-06T07:53:33.044Z,46.20
2023-03-06T07:56:05.592Z,30.70
2023-03-06T07:58:36.865Z,30.40
2023-03-06T08:01:09.689Z,26.90
2023-03-06T08:03:40.530Z,23.00
2023-03-06T08:06:13.882Z,26.70
2023-03-06T08:08:46.187Z,27.00
2023-03-06T08:11:19.560Z,43.90
2023-03-06T08:13:50.980Z,50.50
2023-03-06T08:16:23.777Z,51.80
2023-03-06T08:18:54.873Z,49.20
2023-03-06T08:23:55.919Z,37.40
2023-03-06T08:29:00.371Z,45.30
2023-03-06T08:31:35.266Z,43.60
2023-03-06T08:34:07.333Z,91.00
2023-03-06T08:36:40.504Z,61.60
2023-03-06T08:39:11.776Z,55.10
2023-03-06T08:41:43.098Z,41.60
2023-03-06T08:44:13.989Z,40.00
2023-03-06T08:46:44.733Z,36.60
2023-03-06T08:49:15.785Z,31.10
2023-03-06T08:51:46.444Z,27.80
2023-03-06T08:54:17.232Z,30.90
2023-03-06T08:56:48.012Z,27.90
2023-03-06T08:59:18.760Z,26.60
2023-03-06T09:01:49.720Z,22.70
2023-03-06T09:04:20.559Z,29.60
2023-03-06T09:06:51.304Z,26.20
2023-03-06T09:09:22.000Z,28.50
2023-03-06T09:11:52.629Z,26.40
2023-03-06T09:14:23.283Z,22.20
2023-03-06T09:16:54.096Z,18.70
2023-03-06T09:19:24.856Z,14.60
2023-03-06T09:21:55.575Z,16.80
2023-03-06T09:24:26.240Z,13.10
2023-03-06T09:26:56.978Z,13.60
2023-03-06T09:29:28.245Z,15.10
2023-03-06T09:31:59.013Z,16.50
2023-03-06T09:34:29.719Z,12.90
2023-03-06T09:37:01.561Z,13.70
2023-03-06T09:39:32.286Z,10.60
2023-03-06T09:42:03.549Z,12.00
2023-03-06T09:47:38.375Z,9.10
2023-03-06T09:50:18.577Z,10.00
2023-03-06T09:53:03.470Z,8.00
2023-03-06T09:55:36.164Z,8.60
2023-03-06T09:58:15.695Z,9.70
2023-03-06T10:00:55.439Z,8.80
2023-03-06T10:03:31.147Z,7.70
2023-03-06T10:06:09.419Z,8.80
2023-03-06T10:08:51.531Z,7.20
2023-03-06T10:11:29.058Z,11.00
2023-03-06T10:14:13.991Z,7.30
2023-03-06T10:16:44.718Z,8.00
2023-03-06T10:19:18.145Z,10.20
2023-03-06T10:21:58.265Z,7.40
2023-03-06T10:24:46.930Z,8.00
2023-03-06T10:27:38.430Z,9.20
2023-03-06T10:30:32.640Z,8.60
2023-03-06T10:33:08.923Z,7.90
2023-03-06T10:35:48.223Z,7.70
2023-03-06T10:38:23.141Z,9.30
2023-03-06T10:41:06.224Z,8.20
2023-03-06T10:43:38.322Z,9.00
2023-03-06T10:46:10.864Z,8.60
2023-03-06T10:48:43.662Z,9.80
2023-03-06T10:51:19.928Z,10.40
2023-03-06T10:53:53.336Z,8.10
2023-03-06T10:56:32.887Z,8.80
2023-03-06T10:59:15.028Z,8.50
2023-03-06T11:01:47.187Z,8.20
2023-03-06T11:04:29.426Z,8.30
2023-03-06T11:07:16.428Z,9.30
2023-03-06T11:10:01.372Z,12.00
2023-03-06T11:12:33.367Z,10.10
2023-03-06T11:15:19.679Z,8.60
2023-03-06T11:18:00.269Z,9.70
2023-03-06T11:20:49.995Z,11.20
2023-03-06T11:23:29.123Z,9.20
2023-03-06T11:26:05.213Z,7.10
2023-03-06T11:28:42.173Z,8.80
2023-03-06T11:31:16.436Z,8.00
2023-03-06T11:33:52.631Z,8.30
2023-03-06T11:36:30.220Z,7.60
2023-03-06T11:39:02.991Z,8.10
2023-03-06T11:41:40.461Z,9.50
2023-03-06T11:44:18.038Z,8.60
2023-03-06T11:47:03.289Z,7.60
2023-03-06T11:49:43.640Z,8.60
2023-03-06T11:52:23.578Z,10.10
2023-03-06T11:54:56.394Z,8.50
2023-03-06T11:57:35.114Z,8.00
2023-03-06T12:00:19.525Z,8.60
2023-03-06T12:03:12.592Z,8.60
2023-03-06T12:05:50.559Z,8.00
2023-03-06T12:08:46.425Z,10.00
2023-03-06T12:11:23.832Z,9.80
2023-03-06T12:14:10.972Z,9.90
2023-03-06T12:16:53.168Z,10.50
2023-03-06T12:19:37.917Z,9.70
2023-03-06T12:22:31.529Z,9.40
2023-03-06T12:25:22.801Z,11.60
2023-03-06T12:30:40.007Z,9.80
2023-03-06T12:33:22.698Z,7.90
2023-03-06T12:36:16.639Z,9.60
2023-03-06T12:39:09.799Z,10.80
2023-03-06T12:41:54.517Z,8.80
2023-03-06T12:44:51.738Z,7.60
2023-03-06T12:47:26.776Z,8.00
2023-03-06T12:50:00.978Z,6.70
2023-03-06T12:52:33.853Z,4.80
2023-03-06T12:55:08.308Z,4.90
2023-03-06T12:57:38.960Z,4.40
2023-03-06T13:00:43.811Z,6.20
2023-03-06T13:03:21.490Z,5.00
2023-03-06T13:06:12.335Z,4.90
2023-03-06T13:09:14.086Z,5.00
2023-03-06T13:12:02.967Z,5.20
2023-03-06T13:14:56.479Z,7.10
2023-03-06T13:17:36.048Z,6.70
2023-03-06T13:20:29.380Z,7.50
2023-03-06T13:23:20.138Z,6.50
2023-03-06T13:25:51.722Z,6.20
2023-03-06T13:28:38.886Z,5.60
2023-03-06T13:31:21.364Z,6.70
2023-03-06T13:33:59.609Z,7.10
2023-03-06T13:36:33.006Z,7.70
2023-03-06T13:39:12.543Z,7.70
2023-03-06T13:41:58.082Z,8.60
2023-03-06T13:44:49.165Z,12.00
2023-03-06T13:47:32.459Z,10.10
2023-03-06T13:50:17.459Z,9.10
2023-03-06T13:53:01.220Z,8.60
2023-03-06T13:55:44.385Z,8.70
2023-03-06T13:58:32.133Z,8.00
2023-03-06T14:01:31.151Z,8.70
2023-03-06T14:04:36.598Z,7.10
2023-03-06T14:07:21.797Z,10.70
2023-03-06T14:10:01.148Z,9.10
2023-03-06T14:12:35.130Z,21.10
2023-03-06T14:15:17.284Z,21.70
2023-03-06T14:17:57.264Z,22.80
2023-03-06T14:20:35.264Z,19.10
2023-03-06T14:23:25.762Z,10.90
2023-03-06T14:26:08.261Z,9.70
2023-03-06T14:28:38.945Z,8.20
2023-03-06T14:31:16.483Z,6.70
2023-03-06T14:33:53.764Z,8.60
2023-03-06T14:36:28.381Z,6.70
2023-03-06T14:39:02.597Z,8.10
2023-03-06T14:41:35.216Z,6.40
2023-03-06T14:44:17.524Z,7.40
2023-03-06T14:46:50.015Z,7.40
2023-03-06T14:49:22.228Z,7.70
2023-03-06T14:51:54.624Z,9.30
2023-03-06T14:54:29.060Z,7.90
2023-03-06T14:57:04.849Z,7.20
2023-03-06T14:59:41.704Z,9.70
2023-03-06T15:02:17.601Z,7.70
2023-03-06T15:04:51.253Z,7.90
2023-03-06T15:07:27.629Z,9.60
2023-03-06T15:09:59.705Z,9.30
2023-03-06T15:12:38.063Z,8.00
2023-03-06T15:18:28.152Z,12.70
2023-03-06T15:21:09.246Z,8.00
2023-03-06T15:23:42.934Z,10.20
2023-03-06T15:26:29.584Z,7.80
2023-03-06T15:29:09.202Z,9.40
2023-03-06T15:31:41.908Z,9.80
2023-03-06T15:34:21.697Z,12.90
2023-03-06T15:36:54.537Z,9.10
2023-03-06T15:39:36.636Z,14.30
2023-03-06T15:42:18.324Z,13.60
2023-03-06T15:44:53.692Z,14.00
2023-03-06T15:47:24.658Z,14.20
2023-03-06T15:49:55.399Z,15.50
2023-03-06T15:52:26.044Z,10.50
2023-03-06T15:54:56.783Z,10.20
2023-03-06T15:57:28.420Z,9.50
2023-03-06T15:59:59.752Z,8.80
2023-03-06T16:02:30.409Z,10.00
2023-03-06T16:05:01.439Z,7.90
2023-03-06T16:07:32.536Z,9.70
2023-03-06T16:12:32.439Z,8.50
2023-03-06T16:15:03.375Z,10.10
2023-03-06T16:17:34.026Z,10.10
2023-03-06T16:20:14.914Z,10.10
2023-03-06T16:22:46.868Z,11.60
2023-03-06T16:25:18.742Z,9.60
2023-03-06T16:27:52.019Z,9.60
2023-03-06T16:30:34.392Z,11.90
2023-03-06T16:33:06.021Z,12.10
2023-03-06T16:35:36.732Z,13.90
2023-03-06T16:38:07.616Z,14.20
2023-03-06T16:40:39.266Z,16.10
2023-03-06T16:43:10.850Z,16.00
2023-03-06T16:45:42.692Z,15.30
2023-03-06T16:48:16.661Z,16.20
2023-03-06T16:50:47.564Z,16.90
2023-03-06T16:53:18.782Z,15.30
2023-03-06T16:55:49.504Z,20.90
2023-03-06T16:58:20.234Z,21.70
2023-03-06T17:00:51.188Z,18.90
2023-03-06T17:03:21.822Z,20.20
2023-03-06T17:05:52.501Z,18.50
2023-03-06T17:08:23.298Z,19.50
2023-03-06T17:10:53.986Z,18.60
2023-03-06T17:13:24.892Z,19.10
2023-03-06T17:15:56.120Z,20.30
2023-03-06T17:18:27.810Z,24.10
2023-03-06T17:20:59.139Z,22.40
2023-03-06T17:26:08.331Z,28.70
2023-03-06T17:28:39.609Z,33.70
2023-03-06T17:33:47.133Z,65.80
2023-03-06T17:36:18.294Z,111.00
2023-03-06T17:41:18.223Z,118.80
2023-03-06T17:43:49.257Z,110.60
2023-03-06T17:48:49.378Z,83.60
2023-03-06T17:51:20.087Z,153.90
2023-03-06T17:53:50.738Z,153.20
2023-03-06T17:56:21.721Z,146.00
2023-03-06T17:58:52.441Z,109.70
2023-03-06T18:01:24.630Z,87.00
2023-03-06T18:03:55.683Z,74.20
2023-03-06T18:08:56.229Z,61.20
2023-03-06T18:13:56.620Z,56.50
2023-03-06T18:16:28.869Z,49.90
2023-03-06T18:18:59.625Z,51.80
2023-03-06T18:21:30.576Z,49.30
2023-03-06T18:24:01.330Z,51.60
2023-03-06T18:26:32.735Z,62.40
2023-03-06T18:29:04.671Z,61.30
2023-03-06T18:31:37.580Z,96.70
2023-03-06T18:34:11.208Z,149.00
2023-03-06T18:36:42.414Z,163.90
2023-03-06T18:39:14.124Z,155.50
2023-03-06T18:41:44.976Z,165.10
2023-03-06T18:44:16.382Z,178.20
2023-03-06T18:46:47.158Z,172.80
2023-03-06T18:49:18.299Z,166.20
2023-03-06T18:51:51.285Z,129.90
2023-03-06T18:54:22.246Z,131.20
2023-03-06T18:59:22.691Z,105.40
2023-03-06T19:01:53.703Z,84.40
2023-03-06T19:06:54.279Z,101.50
2023-03-06T19:09:24.905Z,105.80
2023-03-06T19:11:57.301Z,125.10
2023-03-06T19:14:28.646Z,148.60
2023-03-06T19:16:59.429Z,130.90
2023-03-06T19:19:30.167Z,137.20
2023-03-06T19:22:01.482Z,132.60
2023-03-06T19:24:32.477Z,129.50
2023-03-06T19:27:03.204Z,153.50
2023-03-06T19:29:33.861Z,130.40
2023-03-06T19:32:05.089Z,155.10
2023-03-06T19:34:35.811Z,154.50
2023-03-06T19:37:06.493Z,150.40
2023-03-06T19:39:37.167Z,117.20
2023-03-06T19:42:07.989Z,108.90
2023-03-06T19:44:38.733Z,99.10
2023-03-06T19:47:09.620Z,112.20
2023-03-06T19:49:40.718Z,114.60
2023-03-06T19:54:41.023Z,114.80
2023-03-06T19:59:40.880Z,109.40
2023-03-06T20:02:12.915Z,100.80
2023-03-06T20:04:43.953Z,95.60
2023-03-06T20:09:44.013Z,83.30
2023-03-06T20:12:15.116Z,81.40
2023-03-06T20:14:45.861Z,75.80
2023-03-06T20:17:16.764Z,78.20
2023-03-06T20:22:17.339Z,73.00
2023-03-06T20:24:48.120Z,84.40
2023-03-06T20:27:18.879Z,75.40
2023-03-06T20:29:49.811Z,80.70
2023-03-06T20:32:20.493Z,60.40
2023-03-06T20:34:51.185Z,79.60
2023-03-06T20:37:21.890Z,87.10
2023-03-06T20:39:52.996Z,81.60
2023-03-06T20:44:53.051Z,61.20
2023-03-06T20:47:23.806Z,54.00
2023-03-06T20:49:54.562Z,57.30
2023-03-06T20:52:25.175Z,52.00
2023-03-06T20:54:55.835Z,47.40
2023-03-06T20:57:26.529Z,44.20
2023-03-06T20:59:57.141Z,45.10
2023-03-06T21:02:27.864Z,51.60
2023-03-06T21:04:58.635Z,51.90
2023-03-06T21:07:29.379Z,53.00
2023-03-06T21:10:00.317Z,61.10
2023-03-06T21:12:30.993Z,60.40
2023-03-06T21:15:01.679Z,81.80
2023-03-06T21:17:32.385Z,92.00
2023-03-06T21:20:03.248Z,106.20
2023-03-06T21:22:33.911Z,107.20
2023-03-06T21:25:05.319Z,105.80
2023-03-06T21:27:36.057Z,113.30
2023-03-06T21:30:09.041Z,129.40
2023-03-06T21:32:40.065Z,160.40
2023-03-06T21:35:10.814Z,179.60
2023-03-06T21:37:41.564Z,173.30
2023-03-06T21:40:14.777Z,178.20
2023-03-06T21:42:45.491Z,172.20
2023-03-06T21:45:16.734Z,158.80
2023-03-06T21:47:49.276Z,154.00
2023-03-06T21:50:20.210Z,171.40
2023-03-06T21:52:50.948Z,156.20
2023-03-06T21:55:23.003Z,145.60
2023-03-06T21:57:54.952Z,121.10
2023-03-06T22:00:25.859Z,128.80
2023-03-06T22:02:56.591Z,126.00
2023-03-06T22:05:27.255Z,133.40
2023-03-06T22:07:58.008Z,116.70
2023-03-06T22:10:29.079Z,128.00
2023-03-06T22:15:29.005Z,123.00
2023-03-06T22:17:59.716Z,122.90
2023-03-06T22:20:30.452Z,119.40
2023-03-06T22:23:01.110Z,127.20
2023-03-06T22:25:33.802Z,119.60
2023-03-06T22:28:04.503Z,117.70
2023-03-06T22:30:35.207Z,86.40
2023-03-06T22:33:06.064Z,93.20
2023-03-06T22:35:36.832Z,97.00
2023-03-06T22:38:07.499Z,93.20
2023-03-06T22:40:38.361Z,102.20
2023-03-06T22:43:09.025Z,89.40
2023-03-06T22:45:39.646Z,93.40
2023-03-06T22:48:11.387Z,80.40
2023-03-06T22:50:42.077Z,86.70
2023-03-06T22:53:12.771Z,78.60
2023-03-06T22:55:43.525Z,83.60
2023-03-06T22:58:14.174Z,54.90
2023-03-06T23:00:44.879Z,68.00
2023-03-06T23:03:15.569Z,55.70
2023-03-06T23:05:46.188Z,72.50
2023-03-06T23:08:16.886Z,70.80
2023-03-06T23:10:47.585Z,68.00
2023-03-06T23:13:18.215Z,68.40
2023-03-06T23:15:48.978Z,70.70
2023-03-06T23:18:19.712Z,63.70
2023-03-06T23:20:50.363Z,64.40
2023-03-06T23:23:21.439Z,66.30
2023-03-06T23:28:21.545Z,61.10
2023-03-06T23:33:21.447Z,70.10
2023-03-06T23:35:55.527Z,67.10
2023-03-06T23:38:26.231Z,67.30
2023-03-06T23:41:01.017Z,81.70
2023-03-06T23:43:31.974Z,72.10
2023-03-06T23:46:02.706Z,81.10
2023-03-06T23:48:33.805Z,81.50
2023-03-06T23:53:37.189Z,80.60
2023-03-06T23:58:37.624Z,71.40
